Search for airport 
image banner adimage banner adimage banner ad
image banner ad

CN42 - Double Creek Ranch

Located in Manton, United States

ICAO - CN42, IATA -

Data provided by Airmate  

General information

Coordinates: N40°26'45" W121°52'56"
Elevation is 2030 feet MSL.
Magnetic variation is 17° East
View others Airports in California

Operational data

Special qualification required
Current time UTC:
Current local time:
Weather at : KRDD - Redding Muni ( 35 km )
METAR: KRDD 211253Z AUTO 00000KT 10SM CLR 19/07 A2981 RMK AO2 SLP089 T01940072
TAF: KRDD 211120Z 2112/2212 VRB05KT P6SM SCT250 FM212100 19015G24KT P6SM SCT250 FM220300 VRB05KT P6SM SKC
View NOTAMs / SUP AIP / TFR affecting this airport [VIEW]
Communications frequencies: [VIEW]

Runways:

RWY identifierQFULength (ft)Width (ft)SurfaceLDA (ft)
06340080OTHER
24340080OTHER

Airport contact information

Address: Manton United States

Satellite view of CN42